createdAt,value
2023-04-03T00:00:53.225Z,11.57
2023-04-03T00:03:21.085Z,8.33
2023-04-03T00:05:48.820Z,10.83
2023-04-03T00:08:16.912Z,11.73
2023-04-03T00:10:44.450Z,9.23
2023-04-03T00:13:12.723Z,7.83
2023-04-03T00:15:40.622Z,11.87
2023-04-03T00:18:08.380Z,9.53
2023-04-03T00:20:36.334Z,8.17
2023-04-03T00:23:04.074Z,9.77
2023-04-03T00:25:31.742Z,12.20
2023-04-03T00:27:59.293Z,11.00
2023-04-03T00:30:26.981Z,10.03
2023-04-03T00:32:54.934Z,9.80
2023-04-03T00:35:23.060Z,13.60
2023-04-03T00:37:53.080Z,13.40
2023-04-03T00:40:21.155Z,14.87
2023-04-03T00:42:49.932Z,17.07
2023-04-03T00:45:46.920Z,10.20
2023-04-03T00:48:19.953Z,12.37
2023-04-03T00:50:48.073Z,14.27
2023-04-03T00:53:18.200Z,16.50
2023-04-03T00:55:47.244Z,15.57
2023-04-03T00:58:15.290Z,15.07
2023-04-03T01:00:45.495Z,13.97
2023-04-03T01:03:13.060Z,13.43
2023-04-03T01:05:41.228Z,11.73
2023-04-03T01:08:08.971Z,11.73
2023-04-03T01:10:36.688Z,9.07
2023-04-03T01:13:18.563Z,10.83
2023-04-03T01:15:46.305Z,11.30
2023-04-03T01:18:13.848Z,12.83
2023-04-03T01:20:51.929Z,11.33
2023-04-03T01:23:25.410Z,12.47
2023-04-03T01:25:54.620Z,12.23
2023-04-03T01:28:25.261Z,11.77
2023-04-03T01:30:52.837Z,11.53
2023-04-03T01:33:20.438Z,8.80
2023-04-03T01:35:48.044Z,10.63
2023-04-03T01:38:15.572Z,9.20
2023-04-03T01:40:43.184Z,9.57
2023-04-03T01:43:10.846Z,11.97
2023-04-03T01:45:38.402Z,10.23
2023-04-03T01:48:06.141Z,13.57
2023-04-03T01:50:33.732Z,10.10
2023-04-03T01:53:01.305Z,10.10
2023-04-03T01:55:28.890Z,7.33
2023-04-03T01:57:56.407Z,13.50
2023-04-03T02:00:24.040Z,12.83
2023-04-03T02:02:51.609Z,12.43
2023-04-03T02:05:19.165Z,11.67
2023-04-03T02:07:46.804Z,13.20
2023-04-03T02:10:14.521Z,10.13
2023-04-03T02:12:42.024Z,11.87
2023-04-03T02:15:09.837Z,10.43
2023-04-03T02:17:37.442Z,15.20
2023-04-03T02:20:05.301Z,8.87
2023-04-03T02:22:33.141Z,7.53
2023-04-03T02:25:00.814Z,9.20
2023-04-03T02:27:28.847Z,5.67
2023-04-03T02:29:56.407Z,6.83
2023-04-03T02:32:23.939Z,4.57
2023-04-03T02:34:51.537Z,5.20
2023-04-03T02:37:19.042Z,5.93
2023-04-03T02:39:46.569Z,9.97
2023-04-03T02:42:14.078Z,8.87
2023-04-03T02:44:41.615Z,6.37
2023-04-03T02:47:09.157Z,6.50
2023-04-03T02:49:36.737Z,8.33
2023-04-03T02:52:04.337Z,5.53
2023-04-03T02:54:31.940Z,6.73
2023-04-03T02:56:59.605Z,5.00
2023-04-03T02:59:27.195Z,8.83
2023-04-03T03:01:54.743Z,13.30
2023-04-03T03:04:22.289Z,3.07
2023-04-03T03:06:49.776Z,5.93
2023-04-03T03:09:17.304Z,8.10
2023-04-03T03:11:44.924Z,7.77
2023-04-03T03:14:12.438Z,7.17
2023-04-03T03:16:39.956Z,6.17
2023-04-03T03:19:07.474Z,4.87
2023-04-03T03:21:34.985Z,5.50
2023-04-03T03:24:02.528Z,5.37
2023-04-03T03:26:30.060Z,6.83
2023-04-03T03:28:57.631Z,3.90
2023-04-03T03:31:25.224Z,4.87
2023-04-03T03:33:52.804Z,6.17
2023-04-03T03:36:20.337Z,3.63
2023-04-03T03:38:47.925Z,4.80
2023-04-03T03:41:15.433Z,2.60
2023-04-03T03:43:42.975Z,2.47
2023-04-03T03:46:10.546Z,4.47
2023-04-03T03:48:38.074Z,4.47
2023-04-03T03:51:05.596Z,7.17
2023-04-03T03:53:33.114Z,5.37
2023-04-03T03:56:00.635Z,4.20
2023-04-03T03:58:28.188Z,4.53
2023-04-03T04:00:55.686Z,5.60
2023-04-03T04:03:23.274Z,3.20
2023-04-03T04:05:50.851Z,3.17
2023-04-03T04:08:18.395Z,4.00
2023-04-03T04:10:45.912Z,3.03
2023-04-03T04:13:13.450Z,5.13
2023-04-03T04:15:41.166Z,4.00
2023-04-03T04:18:08.954Z,3.40
2023-04-03T04:20:36.564Z,6.07
2023-04-03T04:23:04.204Z,5.37
2023-04-03T04:25:31.713Z,4.27
2023-04-03T04:27:59.242Z,5.03
2023-04-03T04:30:26.746Z,5.63
2023-04-03T04:32:54.327Z,3.97
2023-04-03T04:35:21.903Z,9.23
2023-04-03T04:37:49.574Z,5.57
2023-04-03T04:40:17.137Z,4.30
2023-04-03T04:42:44.740Z,6.20
2023-04-03T04:45:12.427Z,6.30
2023-04-03T04:47:40.007Z,4.70
2023-04-03T04:50:07.723Z,5.67
2023-04-03T04:52:35.249Z,6.23
2023-04-03T04:55:02.754Z,5.30
2023-04-03T04:57:30.359Z,5.47
2023-04-03T04:59:57.920Z,2.17
2023-04-03T05:02:25.553Z,5.80
2023-04-03T05:04:53.151Z,6.47
2023-04-03T05:07:20.848Z,4.03
2023-04-03T05:09:48.337Z,4.83
2023-04-03T05:12:15.929Z,3.90
2023-04-03T05:14:43.456Z,7.30
2023-04-03T05:17:11.031Z,5.67
2023-04-03T05:19:38.519Z,8.97
2023-04-03T05:22:06.098Z,3.20
2023-04-03T05:24:33.574Z,4.53
2023-04-03T05:27:01.119Z,4.73
2023-04-03T05:29:28.748Z,4.70
2023-04-03T05:31:56.387Z,4.97
2023-04-03T05:34:23.982Z,3.13
2023-04-03T05:36:51.601Z,2.03
2023-04-03T05:39:19.169Z,5.37
2023-04-03T05:41:46.695Z,6.40
2023-04-03T05:44:14.240Z,3.77
2023-04-03T05:46:41.818Z,3.70
2023-04-03T05:49:09.378Z,4.97
2023-04-03T05:51:37.568Z,4.57
2023-04-03T05:54:11.660Z,3.40
2023-04-03T05:56:39.181Z,2.97
2023-04-03T05:59:06.725Z,1.90
2023-04-03T06:01:34.385Z,4.30
2023-04-03T06:04:01.965Z,7.47
2023-04-03T06:06:44.474Z,9.00
2023-04-03T06:09:12.043Z,5.87
2023-04-03T06:11:39.563Z,5.93
2023-04-03T06:14:07.145Z,8.73
2023-04-03T06:16:35.376Z,3.40
2023-04-03T06:19:04.360Z,3.57
2023-04-03T06:21:31.872Z,4.47
2023-04-03T06:26:27.130Z,5.90
2023-04-03T06:28:54.674Z,6.07
2023-04-03T06:31:22.251Z,3.53
2023-04-03T06:33:49.919Z,3.10
2023-04-03T06:36:19.029Z,4.93
2023-04-03T06:38:46.616Z,3.80
2023-04-03T06:41:14.154Z,2.30
2023-04-03T06:43:42.022Z,4.17
2023-04-03T06:46:15.239Z,12.77
2023-04-03T06:48:42.978Z,6.77
2023-04-03T06:51:18.656Z,5.33
2023-04-03T06:53:46.325Z,7.03
2023-04-03T06:56:13.967Z,3.43
2023-04-03T06:58:41.589Z,5.40
2023-04-03T07:01:10.143Z,4.07
2023-04-03T07:03:38.816Z,6.03
2023-04-03T07:06:06.902Z,4.87
2023-04-03T07:08:35.241Z,5.23
2023-04-03T07:11:02.739Z,4.03
2023-04-03T07:13:30.341Z,7.67
2023-04-03T07:15:57.888Z,9.70
2023-04-03T07:18:25.614Z,4.67
2023-04-03T07:20:53.088Z,3.77
2023-04-03T07:23:20.862Z,5.40
2023-04-03T07:25:49.034Z,5.73
2023-04-03T07:28:18.108Z,4.60
2023-04-03T07:30:45.726Z,7.53
2023-04-03T07:33:14.262Z,7.73
2023-04-03T07:35:42.200Z,3.23
2023-04-03T07:38:10.349Z,4.73
2023-04-03T07:40:38.935Z,8.83
2023-04-03T07:43:06.704Z,9.00
2023-04-03T07:45:36.498Z,2.37
2023-04-03T07:48:04.447Z,8.07
2023-04-03T07:50:32.057Z,2.73
2023-04-03T07:52:59.923Z,3.70
2023-04-03T07:55:27.443Z,3.57
2023-04-03T07:57:55.056Z,6.40
2023-04-03T08:00:23.028Z,6.40
2023-04-03T08:02:50.722Z,7.10
2023-04-03T08:05:19.309Z,4.93
2023-04-03T08:07:47.160Z,5.73
2023-04-03T08:10:15.212Z,3.77
2023-04-03T08:12:43.327Z,6.23
2023-04-03T08:15:11.027Z,3.57
2023-04-03T08:17:38.610Z,2.77
2023-04-03T08:20:06.815Z,2.80
2023-04-03T08:22:35.013Z,3.03
2023-04-03T08:25:05.240Z,3.53
2023-04-03T08:27:35.733Z,2.87
2023-04-03T08:30:03.401Z,2.57
2023-04-03T08:32:31.025Z,4.17
2023-04-03T08:34:58.648Z,1.90
2023-04-03T08:37:26.221Z,4.27
2023-04-03T08:39:53.836Z,3.03
2023-04-03T08:42:33.344Z,2.47
2023-04-03T08:45:02.722Z,2.83
2023-04-03T08:47:46.719Z,7.33
2023-04-03T08:50:16.905Z,3.70
2023-04-03T08:52:49.388Z,2.03
2023-04-03T08:55:26.059Z,4.77
2023-04-03T08:57:58.979Z,3.40
2023-04-03T09:00:28.775Z,2.50
2023-04-03T09:02:57.622Z,4.23
2023-04-03T09:05:31.061Z,2.10
2023-04-03T09:08:03.874Z,2.03
2023-04-03T09:10:34.765Z,5.33
2023-04-03T09:13:14.294Z,1.20
2023-04-03T09:15:42.302Z,1.33
2023-04-03T09:18:23.249Z,1.50
2023-04-03T09:21:02.884Z,2.50
2023-04-03T09:23:30.629Z,1.93
2023-04-03T09:26:05.957Z,3.83
2023-04-03T09:28:42.897Z,1.40
2023-04-03T09:31:20.220Z,1.57
2023-04-03T09:33:49.543Z,2.43
2023-04-03T09:36:37.027Z,1.27
2023-04-03T09:39:06.053Z,4.03
2023-04-03T09:41:33.609Z,2.23
2023-04-03T09:44:01.140Z,2.40
2023-04-03T09:46:36.110Z,1.43
2023-04-03T09:49:09.536Z,2.60
2023-04-03T09:51:38.025Z,2.00
2023-04-03T09:54:25.552Z,0.80
2023-04-03T09:56:54.502Z,0.67
2023-04-03T09:59:22.066Z,0.93
2023-04-03T10:02:00.330Z,2.60
2023-04-03T10:04:38.097Z,1.10
2023-04-03T10:07:25.718Z,1.83
2023-04-03T10:10:16.740Z,1.83
2023-04-03T10:12:44.387Z,2.00
2023-04-03T10:15:14.592Z,2.80
2023-04-03T10:18:06.396Z,2.07
2023-04-03T10:20:44.582Z,2.80
2023-04-03T10:23:20.954Z,1.43
2023-04-03T10:25:57.692Z,2.50
2023-04-03T10:28:46.394Z,2.67
2023-04-03T10:31:25.120Z,2.50
2023-04-03T10:34:01.774Z,1.47
2023-04-03T10:36:29.324Z,0.80
2023-04-03T10:38:56.855Z,2.00
2023-04-03T10:41:47.488Z,1.03
2023-04-03T10:44:17.928Z,1.37
2023-04-03T10:46:48.453Z,1.50
2023-04-03T10:49:19.064Z,1.00
2023-04-03T10:51:49.233Z,6.43
2023-04-03T10:54:19.731Z,1.50
2023-04-03T10:57:08.471Z,1.83
2023-04-03T10:59:42.502Z,4.87
2023-04-03T11:02:25.202Z,1.80
2023-04-03T11:04:54.944Z,3.63
2023-04-03T11:07:30.566Z,2.87
2023-04-03T11:10:02.337Z,1.83
2023-04-03T11:12:35.240Z,2.07
2023-04-03T11:15:03.637Z,1.70
2023-04-03T11:17:43.564Z,2.37
2023-04-03T11:20:23.706Z,1.57
2023-04-03T11:22:59.019Z,3.00
2023-04-03T11:25:27.428Z,3.30
2023-04-03T11:28:02.319Z,2.00
2023-04-03T11:30:34.337Z,1.80
2023-04-03T11:33:05.005Z,2.30
2023-04-03T11:35:33.396Z,2.93
2023-04-03T11:38:02.119Z,2.73
2023-04-03T11:40:37.404Z,1.97
2023-04-03T11:43:18.850Z,1.33
2023-04-03T11:45:55.685Z,3.70
2023-04-03T11:48:29.410Z,1.70
2023-04-03T11:50:57.816Z,2.73
2023-04-03T11:53:30.352Z,2.10
2023-04-03T11:55:59.433Z,4.43
2023-04-03T11:58:36.241Z,2.33
2023-04-03T12:01:06.562Z,2.67
2023-04-03T12:03:36.053Z,3.77
2023-04-03T12:06:06.780Z,4.33
2023-04-03T12:08:34.376Z,1.60
2023-04-03T12:11:11.005Z,3.23
2023-04-03T12:13:41.549Z,3.13
2023-04-03T12:16:23.061Z,3.07
2023-04-03T12:18:50.966Z,1.97
2023-04-03T12:21:19.881Z,1.60
2023-04-03T12:23:56.646Z,2.17
2023-04-03T12:26:48.812Z,2.83
2023-04-03T12:29:23.348Z,2.20
2023-04-03T12:31:58.414Z,1.27
2023-04-03T12:34:32.360Z,14.43
2023-04-03T12:37:03.447Z,6.73
2023-04-03T12:40:09.422Z,2.03
2023-04-03T12:42:42.894Z,1.10
2023-04-03T12:45:16.506Z,1.77
2023-04-03T12:47:44.507Z,1.33
2023-04-03T12:50:26.027Z,1.40
2023-04-03T12:52:58.139Z,1.70
2023-04-03T12:55:26.189Z,1.43
2023-04-03T12:57:53.939Z,2.63
2023-04-03T13:00:30.150Z,2.20
2023-04-03T13:02:58.066Z,2.57
2023-04-03T13:05:25.850Z,2.40
2023-04-03T13:08:01.466Z,1.67
2023-04-03T13:10:29.121Z,1.27
2023-04-03T13:12:58.668Z,2.07
2023-04-03T13:15:31.256Z,1.97
2023-04-03T13:17:59.457Z,1.23
2023-04-03T13:20:34.857Z,1.30
2023-04-03T13:23:02.499Z,3.63
2023-04-03T13:25:32.156Z,3.70
2023-04-03T13:28:12.766Z,1.73
2023-04-03T13:30:55.232Z,1.80
2023-04-03T13:33:25.240Z,1.53
2023-04-03T13:36:16.040Z,1.10
2023-04-03T13:38:43.714Z,2.63
2023-04-03T13:41:43.677Z,2.03
2023-04-03T13:44:23.491Z,2.17
2023-04-03T13:46:52.424Z,6.47
2023-04-03T13:49:30.072Z,1.63
2023-04-03T13:52:07.304Z,1.60
2023-04-03T13:54:39.974Z,1.70
2023-04-03T13:57:15.081Z,1.67
2023-04-03T13:59:42.930Z,1.33
2023-04-03T14:02:10.418Z,2.60
2023-04-03T14:04:47.289Z,2.73
2023-04-03T14:07:15.498Z,3.80
2023-04-03T14:09:43.343Z,2.07
2023-04-03T14:12:29.971Z,1.47
2023-04-03T14:14:59.660Z,1.70
2023-04-03T14:17:27.718Z,2.90
2023-04-03T14:19:56.085Z,1.73
2023-04-03T14:22:25.545Z,2.53
2023-04-03T14:24:54.158Z,3.23
2023-04-03T14:27:29.965Z,2.43
2023-04-03T14:29:58.536Z,2.33
2023-04-03T14:32:26.848Z,3.33
2023-04-03T14:34:54.864Z,2.90
2023-04-03T14:37:24.385Z,1.00
2023-04-03T14:39:52.782Z,4.13
2023-04-03T14:42:22.168Z,2.30
2023-04-03T14:44:52.979Z,2.13
2023-04-03T14:47:30.622Z,4.93
2023-04-03T14:50:00.638Z,2.20
2023-04-03T14:52:29.683Z,2.20
2023-04-03T14:54:57.357Z,1.93
2023-04-03T14:57:25.947Z,0.80
2023-04-03T14:59:53.584Z,4.87
2023-04-03T15:02:31.732Z,3.23
2023-04-03T15:05:00.193Z,1.53
2023-04-03T15:07:29.466Z,2.00
2023-04-03T15:09:57.129Z,1.73
2023-04-03T15:12:25.180Z,1.47
2023-04-03T15:15:00.254Z,2.47
2023-04-03T15:17:29.624Z,1.20
2023-04-03T15:19:57.236Z,4.37
2023-04-03T15:22:24.875Z,2.37
2023-04-03T15:24:54.286Z,2.33
2023-04-03T15:27:22.025Z,3.37
2023-04-03T15:29:49.614Z,2.27
2023-04-03T15:32:17.261Z,1.57
2023-04-03T15:34:44.854Z,2.27
2023-04-03T15:37:12.437Z,1.50
2023-04-03T15:39:39.961Z,3.20
2023-04-03T15:42:07.588Z,2.80
2023-04-03T15:44:35.694Z,3.60
2023-04-03T15:47:03.889Z,1.90
2023-04-03T15:49:32.361Z,2.60
2023-04-03T15:52:00.042Z,2.43
2023-04-03T15:54:27.856Z,3.33
2023-04-03T15:56:55.454Z,2.70
2023-04-03T15:59:23.124Z,2.90
2023-04-03T16:01:51.867Z,5.43
2023-04-03T16:04:20.658Z,5.33
2023-04-03T16:06:48.380Z,3.63
2023-04-03T16:09:15.940Z,1.60
2023-04-03T16:11:43.491Z,3.60
2023-04-03T16:14:11.077Z,2.57
2023-04-03T16:16:39.240Z,1.27
2023-04-03T16:19:06.965Z,3.60
2023-04-03T16:21:34.947Z,3.50
2023-04-03T16:24:02.826Z,2.60
2023-04-03T16:26:30.551Z,3.37
2023-04-03T16:28:58.154Z,2.77
2023-04-03T16:31:26.732Z,3.73
2023-04-03T16:33:54.415Z,3.90
2023-04-03T16:36:22.070Z,1.97
2023-04-03T16:38:51.477Z,3.70
2023-04-03T16:41:19.274Z,3.77
2023-04-03T16:43:46.772Z,2.30
2023-04-03T16:46:14.355Z,3.37
2023-04-03T16:48:41.957Z,2.67
2023-04-03T16:51:09.571Z,2.20
2023-04-03T16:53:37.118Z,3.90
2023-04-03T16:56:04.740Z,1.63
2023-04-03T16:58:32.554Z,3.00
2023-04-03T17:01:00.234Z,7.40
2023-04-03T17:03:27.800Z,4.57
2023-04-03T17:05:55.393Z,3.80
2023-04-03T17:08:22.917Z,2.10
2023-04-03T17:10:51.383Z,2.70
2023-04-03T17:13:18.936Z,2.80
2023-04-03T17:15:46.522Z,3.13
2023-04-03T17:18:14.040Z,2.20
2023-04-03T17:20:41.695Z,3.43
2023-04-03T17:23:09.483Z,4.20
2023-04-03T17:25:37.315Z,1.93
2023-04-03T17:28:04.952Z,2.50
2023-04-03T17:30:32.584Z,1.90
2023-04-03T17:33:00.121Z,5.00
2023-04-03T17:35:27.752Z,1.10
2023-04-03T17:37:55.289Z,1.67
2023-04-03T17:40:22.915Z,2.43
2023-04-03T17:42:50.451Z,1.77
2023-04-03T17:45:18.113Z,1.30
2023-04-03T17:47:45.661Z,3.37
2023-04-03T17:50:13.356Z,2.87
2023-04-03T17:52:40.861Z,1.90
2023-04-03T17:55:10.106Z,1.90
2023-04-03T17:57:37.583Z,4.97
2023-04-03T18:00:05.840Z,5.10
2023-04-03T18:02:33.395Z,6.97
2023-04-03T18:05:01.036Z,4.07
2023-04-03T18:07:29.162Z,2.13
2023-04-03T18:09:57.244Z,4.27
2023-04-03T18:12:24.893Z,8.03
2023-04-03T18:14:52.476Z,1.57
2023-04-03T18:17:20.001Z,5.80
2023-04-03T18:19:47.828Z,3.33
2023-04-03T18:22:24.340Z,1.40
2023-04-03T18:24:53.066Z,2.67
2023-04-03T18:27:21.971Z,1.37
2023-04-03T18:29:51.083Z,4.90
2023-04-03T18:32:19.707Z,2.00
2023-04-03T18:34:47.314Z,2.87
2023-04-03T18:37:15.389Z,3.83
2023-04-03T18:39:43.138Z,4.77
2023-04-03T18:42:13.561Z,2.13
2023-04-03T18:44:41.812Z,2.33
2023-04-03T18:47:09.396Z,2.60
2023-04-03T18:49:37.942Z,2.47
2023-04-03T18:52:05.676Z,3.17
2023-04-03T18:54:33.354Z,4.80
2023-04-03T18:57:00.938Z,2.33
2023-04-03T18:59:28.734Z,2.47
2023-04-03T19:01:56.723Z,4.80
2023-04-03T19:04:24.590Z,1.93
2023-04-03T19:06:53.147Z,3.37
2023-04-03T19:09:20.751Z,2.80
2023-04-03T19:11:48.489Z,3.37
2023-04-03T19:14:17.154Z,3.80
2023-04-03T19:16:45.250Z,3.43
2023-04-03T19:19:13.123Z,4.47
2023-04-03T19:21:40.757Z,2.57
2023-04-03T19:24:09.444Z,3.40
2023-04-03T19:26:37.393Z,1.20
2023-04-03T19:29:05.411Z,3.10
2023-04-03T19:31:33.063Z,2.50
2023-04-03T19:34:00.898Z,3.00
2023-04-03T19:36:28.829Z,2.13
2023-04-03T19:38:56.467Z,2.47
2023-04-03T19:41:26.238Z,2.03
2023-04-03T19:43:55.611Z,2.73
2023-04-03T19:46:23.784Z,3.30
2023-04-03T19:48:51.528Z,2.40
2023-04-03T19:51:19.381Z,1.30
2023-04-03T19:53:47.051Z,3.23
2023-04-03T19:56:14.945Z,2.90
2023-04-03T19:58:42.966Z,3.17
2023-04-03T20:01:10.882Z,4.03
2023-04-03T20:03:38.377Z,4.63
2023-04-03T20:06:05.963Z,2.80
2023-04-03T20:08:33.501Z,2.47
2023-04-03T20:11:01.170Z,1.53
2023-04-03T20:13:28.716Z,4.23
2023-04-03T20:15:56.328Z,2.47
2023-04-03T20:18:24.029Z,3.07
2023-04-03T20:20:58.649Z,4.50
2023-04-03T20:23:26.838Z,2.00
2023-04-03T20:26:06.622Z,2.50
2023-04-03T20:28:36.983Z,5.67
2023-04-03T20:31:04.534Z,3.70
2023-04-03T20:33:32.172Z,2.20
2023-04-03T20:35:59.732Z,3.60
2023-04-03T20:38:27.291Z,3.20
2023-04-03T20:40:54.845Z,7.97
2023-04-03T20:43:22.497Z,4.50
2023-04-03T20:45:50.316Z,4.63
2023-04-03T20:48:18.079Z,3.47
2023-04-03T20:50:46.667Z,3.40
2023-04-03T20:53:15.233Z,3.60
2023-04-03T20:55:42.834Z,2.90
2023-04-03T20:58:10.392Z,3.90
2023-04-03T21:00:38.256Z,4.50
2023-04-03T21:03:06.394Z,3.70
2023-04-03T21:05:34.169Z,2.97
2023-04-03T21:08:20.306Z,2.13
2023-04-03T21:11:25.496Z,11.10
2023-04-03T21:14:30.444Z,1.77
2023-04-03T21:17:16.629Z,4.23
2023-04-03T21:20:03.028Z,3.70
2023-04-03T21:22:49.275Z,5.53
2023-04-03T21:25:35.223Z,3.63
2023-04-03T21:28:21.771Z,5.73
2023-04-03T21:31:08.410Z,4.47
2023-04-03T21:33:55.830Z,4.70
2023-04-03T21:36:42.319Z,3.73
2023-04-03T21:39:28.217Z,3.83
2023-04-03T21:42:14.452Z,2.50
2023-04-03T21:45:00.445Z,3.33
2023-04-03T21:47:46.423Z,2.90
2023-04-03T21:50:32.668Z,4.50
2023-04-03T21:53:18.832Z,6.07
2023-04-03T21:56:04.778Z,2.87
2023-04-03T21:58:51.674Z,4.60
2023-04-03T22:01:37.993Z,2.83
2023-04-03T22:04:24.129Z,3.77
2023-04-03T22:07:10.416Z,2.90
2023-04-03T22:09:56.329Z,4.27
2023-04-03T22:12:42.431Z,2.60
2023-04-03T22:15:28.676Z,4.77
2023-04-03T22:18:14.985Z,4.67
2023-04-03T22:21:00.863Z,6.60
2023-04-03T22:23:46.910Z,4.80
2023-04-03T22:26:33.184Z,4.70
2023-04-03T22:29:19.328Z,3.33
2023-04-03T22:32:05.338Z,3.80
2023-04-03T22:34:51.209Z,2.40
2023-04-03T22:37:37.769Z,3.13
2023-04-03T22:40:24.033Z,7.40
2023-04-03T22:43:10.504Z,4.83
2023-04-03T22:45:56.867Z,3.47
2023-04-03T22:48:42.848Z,3.00
2023-04-03T22:51:28.951Z,2.03
2023-04-03T22:54:15.153Z,2.57
2023-04-03T22:57:00.995Z,4.57
2023-04-03T22:59:46.931Z,4.00
2023-04-03T23:02:33.240Z,3.33
2023-04-03T23:05:19.089Z,5.30
2023-04-03T23:08:05.055Z,3.77
2023-04-03T23:10:54.306Z,3.10
2023-04-03T23:13:40.181Z,4.50
2023-04-03T23:16:26.309Z,3.03
2023-04-03T23:19:12.538Z,3.17
2023-04-03T23:21:58.431Z,3.33
2023-04-03T23:24:44.285Z,4.70
2023-04-03T23:27:30.538Z,2.57
2023-04-03T23:30:16.664Z,6.13
2023-04-03T23:33:02.558Z,4.30
2023-04-03T23:35:49.153Z,4.53
2023-04-03T23:38:35.919Z,3.70
2023-04-03T23:41:21.905Z,3.33
2023-04-03T23:44:07.899Z,5.43
2023-04-03T23:46:54.025Z,3.10
2023-04-03T23:49:40.067Z,3.27
2023-04-03T23:52:26.217Z,4.53
2023-04-03T23:55:12.590Z,6.50
2023-04-03T23:57:59.016Z,4.23
